Terminal Aerodrome Forecast
Issued by NWS

Home | Current Version | Previous Version | Graphics & Text | Print | Product List | Glossary On
Versions: 1 2 3 4 5 6 7 8 9 10 11 12 13 14 15 16 17 18 19 20 21 22 23 24 25 26 27
000
FTUS45 KGGW 282336
TAFGDV
TAF
KGDV 282336Z 2900/2924 28011KT 3SM FU HZ FEW200
     FM290300 VRB05KT 4SM FU HZ FEW200
     FM291700 20008KT 6SM FU HZ SCT120
      AMD LTD TO CLD VIS AND WIND=

USA.gov is the U.S. government's official web portal to all federal, state and local government web resources and services.